createdAt,value
2017-12-26T00:01:19.926Z,3.40
2017-12-26T00:03:47.520Z,3.40
2017-12-26T00:06:15.112Z,3.30
2017-12-26T00:08:42.791Z,3.30
2017-12-26T00:11:11.202Z,3.20
2017-12-26T00:13:38.885Z,3.20
2017-12-26T00:16:06.964Z,3.20
2017-12-26T00:18:34.637Z,3.10
2017-12-26T00:21:02.311Z,3.10
2017-12-26T00:23:29.984Z,3.10
2017-12-26T00:25:57.672Z,3.10
2017-12-26T00:28:25.297Z,3.00
2017-12-26T00:30:52.922Z,2.90
2017-12-26T00:33:20.570Z,2.90
2017-12-26T00:35:48.176Z,2.80
2017-12-26T00:38:15.810Z,2.80
2017-12-26T00:40:44.162Z,2.80
2017-12-26T00:43:12.077Z,2.70
2017-12-26T00:45:39.708Z,2.70
2017-12-26T00:48:08.087Z,2.80
2017-12-26T00:50:35.725Z,2.70
2017-12-26T00:53:03.338Z,2.70
2017-12-26T00:55:30.995Z,2.70
2017-12-26T00:57:58.583Z,2.70
2017-12-26T01:00:26.959Z,2.60
2017-12-26T01:02:54.571Z,2.60
2017-12-26T01:05:22.289Z,2.60
2017-12-26T01:07:50.131Z,2.50
2017-12-26T01:10:17.712Z,2.60
2017-12-26T01:12:46.097Z,2.50
2017-12-26T01:15:13.734Z,2.50
2017-12-26T01:17:41.338Z,2.50
2017-12-26T01:20:08.977Z,2.40
2017-12-26T01:22:36.587Z,2.30
2017-12-26T01:25:04.951Z,2.30
2017-12-26T01:27:32.579Z,2.30
2017-12-26T01:30:00.207Z,2.30
2017-12-26T01:32:28.562Z,2.20
2017-12-26T01:34:56.229Z,2.20
2017-12-26T01:37:23.860Z,2.20
2017-12-26T01:39:51.474Z,2.20
2017-12-26T01:42:19.116Z,2.20
2017-12-26T01:44:46.705Z,2.20
2017-12-26T01:47:14.324Z,2.00
2017-12-26T01:49:41.918Z,2.10
2017-12-26T01:52:09.557Z,2.10
2017-12-26T01:54:37.158Z,2.10
2017-12-26T01:57:04.749Z,2.10
2017-12-26T01:59:32.401Z,2.00
2017-12-26T02:01:59.988Z,2.00
2017-12-26T02:04:28.395Z,2.00
2017-12-26T02:06:55.995Z,1.90
2017-12-26T02:09:25.244Z,1.90
2017-12-26T02:11:52.835Z,1.90
2017-12-26T02:14:20.486Z,1.90
2017-12-26T02:16:48.086Z,1.90
2017-12-26T02:19:15.707Z,1.70
2017-12-26T02:21:43.331Z,1.70
2017-12-26T02:24:10.946Z,1.70
2017-12-26T02:26:38.537Z,1.70
2017-12-26T02:29:06.145Z,1.70
2017-12-26T02:31:33.807Z,1.60
2017-12-26T02:34:01.476Z,1.60
2017-12-26T02:36:29.062Z,1.60
2017-12-26T02:38:57.470Z,1.70
2017-12-26T02:41:25.083Z,1.60
2017-12-26T02:43:52.733Z,1.50
2017-12-26T02:46:20.356Z,1.50
2017-12-26T02:48:48.003Z,1.50
2017-12-26T02:51:16.387Z,1.40
2017-12-26T02:53:44.742Z,1.50
2017-12-26T02:56:12.359Z,1.40
2017-12-26T02:58:39.985Z,1.50
2017-12-26T03:01:07.605Z,1.50
2017-12-26T03:03:35.189Z,1.50
2017-12-26T03:06:02.823Z,1.50
2017-12-26T03:08:30.421Z,1.40
2017-12-26T03:10:58.083Z,1.40
2017-12-26T03:13:25.710Z,1.40
2017-12-26T03:15:54.077Z,1.40
2017-12-26T03:18:21.858Z,1.40
2017-12-26T03:20:50.219Z,1.40
2017-12-26T03:23:17.811Z,1.40
2017-12-26T03:25:45.451Z,1.40
2017-12-26T03:28:13.185Z,1.30
2017-12-26T03:30:40.786Z,1.30
2017-12-26T03:33:08.426Z,1.40
2017-12-26T03:35:36.037Z,1.40
2017-12-26T03:38:04.465Z,1.50
2017-12-26T03:40:32.089Z,1.50
2017-12-26T03:43:00.461Z,1.50
2017-12-26T03:45:28.175Z,1.50
2017-12-26T03:47:55.779Z,1.50
2017-12-26T03:50:23.378Z,1.50
2017-12-26T03:52:51.010Z,1.50
2017-12-26T03:55:18.594Z,1.50
2017-12-26T03:57:47.327Z,1.60
2017-12-26T04:00:14.945Z,1.50
2017-12-26T04:02:43.335Z,1.60
2017-12-26T04:05:11.749Z,1.60
2017-12-26T04:07:39.366Z,1.60
2017-12-26T04:10:06.981Z,1.60
2017-12-26T04:12:34.570Z,1.60
2017-12-26T04:15:02.202Z,1.60
2017-12-26T04:17:30.606Z,1.80
2017-12-26T04:19:58.248Z,1.80
2017-12-26T04:22:26.615Z,1.80
2017-12-26T04:24:54.231Z,1.80
2017-12-26T04:27:21.860Z,1.80
2017-12-26T04:29:49.478Z,1.70
2017-12-26T04:32:17.107Z,1.80
2017-12-26T04:34:44.715Z,1.90
2017-12-26T04:37:12.350Z,1.90
2017-12-26T04:39:39.957Z,1.80
2017-12-26T04:42:07.534Z,1.80
2017-12-26T04:44:35.163Z,1.80
2017-12-26T04:47:02.751Z,1.70
2017-12-26T04:49:31.206Z,1.60
2017-12-26T04:52:00.149Z,1.60
2017-12-26T04:54:27.789Z,1.60
2017-12-26T04:56:55.433Z,1.60
2017-12-26T04:59:23.053Z,1.60
2017-12-26T05:01:51.522Z,1.60
2017-12-26T05:04:19.147Z,1.60
2017-12-26T05:06:46.787Z,1.60
2017-12-26T05:09:15.187Z,1.60
2017-12-26T05:11:42.783Z,1.60
2017-12-26T05:14:10.370Z,1.60
2017-12-26T05:16:38.004Z,1.50
2017-12-26T05:19:05.610Z,1.60
2017-12-26T05:21:34.009Z,1.70
2017-12-26T05:24:02.367Z,1.60
2017-12-26T05:26:29.976Z,1.60
2017-12-26T05:28:57.595Z,1.60
2017-12-26T05:31:25.176Z,1.60
2017-12-26T05:33:53.572Z,1.40
2017-12-26T05:36:21.936Z,1.40
2017-12-26T05:38:49.558Z,1.40
2017-12-26T05:41:17.180Z,1.30
2017-12-26T05:43:45.579Z,1.30
2017-12-26T05:46:14.002Z,1.30
2017-12-26T05:48:41.617Z,1.30
2017-12-26T05:51:09.968Z,1.40
2017-12-26T05:53:37.691Z,1.30
2017-12-26T05:56:05.324Z,1.30
2017-12-26T05:58:32.947Z,1.30
2017-12-26T06:01:00.574Z,1.40
2017-12-26T06:03:28.934Z,1.40
2017-12-26T06:05:56.661Z,1.30
2017-12-26T06:08:24.275Z,1.30
2017-12-26T06:10:51.860Z,1.40
2017-12-26T06:13:20.255Z,1.20
2017-12-26T06:15:47.844Z,1.20
2017-12-26T06:18:15.578Z,1.20
2017-12-26T06:20:43.200Z,1.10
2017-12-26T06:23:10.793Z,1.20
2017-12-26T06:25:38.411Z,1.10
2017-12-26T06:28:06.010Z,1.20
2017-12-26T06:30:33.657Z,1.20
2017-12-26T06:33:01.267Z,1.20
2017-12-26T06:35:29.635Z,1.30
2017-12-26T06:37:58.038Z,1.30
2017-12-26T06:40:26.396Z,1.20
2017-12-26T06:42:54.027Z,1.20
2017-12-26T06:45:21.656Z,1.30
2017-12-26T06:47:50.044Z,1.40
2017-12-26T06:50:18.442Z,1.40
2017-12-26T06:52:46.091Z,1.40
2017-12-26T06:55:14.441Z,1.40
2017-12-26T06:57:42.036Z,1.40
2017-12-26T07:00:10.452Z,1.40
2017-12-26T07:02:38.062Z,1.30
2017-12-26T07:05:05.683Z,1.40
2017-12-26T07:07:33.307Z,1.40
2017-12-26T07:10:01.829Z,1.50
2017-12-26T07:12:29.446Z,1.40
2017-12-26T07:14:57.830Z,1.60
2017-12-26T07:17:26.255Z,1.70
2017-12-26T07:19:53.862Z,1.60
2017-12-26T07:22:23.337Z,1.70
2017-12-26T07:24:50.920Z,1.70
2017-12-26T07:27:18.583Z,1.80
2017-12-26T07:29:46.214Z,1.90
2017-12-26T07:32:14.687Z,2.00
2017-12-26T07:34:43.059Z,2.00
2017-12-26T07:37:10.697Z,1.90
2017-12-26T07:39:38.326Z,2.00
2017-12-26T07:42:05.918Z,2.00
2017-12-26T07:44:33.662Z,1.90
2017-12-26T07:47:01.276Z,2.00
2017-12-26T07:49:28.871Z,2.00
2017-12-26T07:51:57.246Z,2.20
2017-12-26T07:54:25.674Z,2.20
2017-12-26T07:56:53.290Z,2.20
2017-12-26T07:59:20.894Z,2.30
2017-12-26T08:01:48.515Z,2.30
2017-12-26T08:04:16.145Z,2.30
2017-12-26T08:06:43.763Z,2.20
2017-12-26T08:09:12.183Z,2.40
2017-12-26T08:11:39.816Z,2.30
2017-12-26T08:14:08.214Z,2.40
2017-12-26T08:16:35.838Z,2.40
2017-12-26T08:19:03.474Z,2.40
2017-12-26T08:21:31.117Z,2.50
2017-12-26T08:23:58.762Z,2.50
2017-12-26T08:26:27.117Z,2.40
2017-12-26T08:28:54.720Z,2.40
2017-12-26T08:31:22.341Z,2.50
2017-12-26T08:33:49.966Z,2.60
2017-12-26T08:36:17.624Z,2.50
2017-12-26T08:38:45.993Z,2.60
2017-12-26T08:41:14.414Z,2.70
2017-12-26T08:43:42.013Z,2.60
2017-12-26T08:46:09.633Z,2.70
2017-12-26T08:48:37.273Z,2.70
2017-12-26T08:51:05.686Z,2.70
2017-12-26T08:53:33.281Z,2.70
2017-12-26T08:56:00.901Z,2.80
2017-12-26T08:58:29.280Z,2.90
2017-12-26T09:00:57.663Z,2.90
2017-12-26T09:03:26.035Z,2.90
2017-12-26T09:05:54.440Z,2.90
2017-12-26T09:08:22.079Z,2.90
2017-12-26T09:10:49.727Z,3.00
2017-12-26T09:13:17.338Z,3.10
2017-12-26T09:15:44.972Z,3.00
2017-12-26T09:18:12.549Z,3.10
2017-12-26T09:20:40.932Z,3.20
2017-12-26T09:23:08.576Z,3.10
2017-12-26T09:25:36.161Z,3.20
2017-12-26T09:28:04.585Z,3.40
2017-12-26T09:30:32.245Z,3.40
2017-12-26T09:32:59.860Z,3.40
2017-12-26T09:35:27.455Z,3.60
2017-12-26T09:37:55.852Z,3.70
2017-12-26T09:40:23.453Z,3.70
2017-12-26T09:42:51.049Z,3.80
2017-12-26T09:45:18.669Z,3.80
2017-12-26T09:47:46.652Z,3.90
2017-12-26T09:50:14.268Z,3.80
2017-12-26T09:52:41.896Z,3.90
2017-12-26T09:55:09.521Z,3.90
2017-12-26T09:57:37.134Z,4.10
2017-12-26T10:00:04.743Z,4.30
2017-12-26T10:02:33.313Z,4.40
2017-12-26T10:05:03.607Z,4.40
2017-12-26T10:07:31.199Z,4.40
2017-12-26T10:09:58.854Z,4.50
2017-12-26T10:12:26.469Z,4.60
2017-12-26T10:14:54.059Z,4.70
2017-12-26T10:17:21.684Z,4.80
2017-12-26T10:19:50.161Z,5.00
2017-12-26T10:22:17.791Z,4.90
2017-12-26T10:24:45.412Z,5.00
2017-12-26T10:27:13.056Z,5.10
2017-12-26T10:29:40.739Z,5.10
2017-12-26T10:32:09.183Z,5.50
2017-12-26T10:34:36.766Z,5.40
2017-12-26T10:37:05.160Z,5.60
2017-12-26T10:39:33.592Z,5.80
2017-12-26T10:42:01.223Z,5.80
2017-12-26T10:44:28.870Z,6.00
2017-12-26T10:46:56.543Z,6.20
2017-12-26T10:49:24.197Z,6.30
2017-12-26T10:51:51.803Z,6.50
2017-12-26T10:54:19.471Z,6.60
2017-12-26T10:56:47.122Z,6.60
2017-12-26T10:59:14.762Z,6.80
2017-12-26T11:01:42.392Z,6.90
2017-12-26T11:04:10.002Z,7.10
2017-12-26T11:06:37.647Z,7.00
2017-12-26T11:09:05.316Z,7.10
2017-12-26T11:11:32.930Z,7.10
2017-12-26T11:14:01.313Z,7.50
2017-12-26T11:16:29.683Z,7.70
2017-12-26T11:18:58.098Z,7.80
2017-12-26T11:21:25.739Z,7.80
2017-12-26T11:23:54.145Z,8.10
2017-12-26T11:26:21.783Z,8.20
2017-12-26T11:28:50.221Z,8.40
2017-12-26T11:31:17.832Z,8.30
2017-12-26T11:33:46.202Z,8.60
2017-12-26T11:36:13.845Z,8.60
2017-12-26T11:38:41.486Z,8.70
2017-12-26T11:41:09.443Z,8.70
2017-12-26T11:43:37.056Z,8.70
2017-12-26T11:46:04.728Z,8.80
2017-12-26T11:48:32.456Z,8.90
2017-12-26T11:51:00.086Z,8.90
2017-12-26T11:53:28.538Z,9.20
2017-12-26T11:55:56.157Z,9.10
2017-12-26T11:58:24.563Z,9.30
2017-12-26T12:00:52.191Z,9.30
2017-12-26T12:03:20.645Z,9.30
2017-12-26T12:05:48.239Z,9.30
2017-12-26T12:08:16.668Z,9.20
2017-12-26T12:10:44.449Z,9.10
2017-12-26T12:13:12.110Z,9.00
2017-12-26T12:15:40.165Z,9.00
2017-12-26T12:18:07.819Z,8.90
2017-12-26T12:20:36.235Z,8.80
2017-12-26T12:23:03.923Z,8.80
2017-12-26T12:25:31.579Z,8.80
2017-12-26T12:27:59.218Z,8.80
2017-12-26T12:30:26.821Z,8.70
2017-12-26T12:32:54.470Z,8.80
2017-12-26T12:35:22.070Z,8.80
2017-12-26T12:37:49.686Z,8.70
2017-12-26T12:40:17.338Z,8.80
2017-12-26T12:42:45.038Z,8.70
2017-12-26T12:45:12.720Z,8.80
2017-12-26T12:47:40.405Z,8.80
2017-12-26T12:50:08.041Z,8.90
2017-12-26T12:52:35.678Z,8.90
2017-12-26T12:55:03.279Z,8.80
2017-12-26T12:57:30.910Z,8.80
2017-12-26T12:59:58.529Z,8.80
2017-12-26T13:02:26.583Z,8.80
2017-12-26T13:04:54.234Z,8.80
2017-12-26T13:07:21.896Z,8.80
2017-12-26T13:09:49.520Z,8.80
2017-12-26T13:12:17.122Z,8.80
2017-12-26T13:14:44.777Z,8.70
2017-12-26T13:17:12.415Z,8.70
2017-12-26T13:19:40.025Z,8.70
2017-12-26T13:22:07.641Z,8.60
2017-12-26T13:24:36.119Z,8.60
2017-12-26T13:27:03.760Z,8.70
2017-12-26T13:29:31.384Z,8.70
2017-12-26T13:31:59.090Z,8.70
2017-12-26T13:34:26.712Z,8.80
2017-12-26T13:36:55.143Z,8.80
2017-12-26T13:39:22.760Z,8.80
2017-12-26T13:41:51.196Z,9.00
2017-12-26T13:44:18.794Z,9.00
2017-12-26T13:46:46.465Z,9.00
2017-12-26T13:49:14.055Z,9.00
2017-12-26T13:51:41.702Z,9.00
2017-12-26T13:54:09.351Z,8.90
2017-12-26T13:56:36.996Z,8.90
2017-12-26T13:59:04.687Z,8.90
2017-12-26T14:01:32.319Z,8.90
2017-12-26T14:04:00.015Z,8.90
2017-12-26T14:06:27.683Z,8.90
2017-12-26T14:08:55.341Z,8.90
2017-12-26T14:11:23.193Z,8.90
2017-12-26T14:13:50.819Z,8.80
2017-12-26T14:16:19.220Z,8.60
2017-12-26T14:18:46.887Z,8.50
2017-12-26T14:21:14.556Z,8.40
2017-12-26T14:23:42.210Z,8.30
2017-12-26T14:26:09.927Z,8.40
2017-12-26T14:28:38.119Z,8.30
2017-12-26T14:31:05.776Z,8.30
2017-12-26T14:33:33.422Z,8.20
2017-12-26T14:36:01.081Z,8.20
2017-12-26T14:38:28.734Z,8.10
2017-12-26T14:40:56.333Z,8.00
2017-12-26T14:43:23.974Z,8.00
2017-12-26T14:45:51.586Z,8.00
2017-12-26T14:48:19.228Z,8.00
2017-12-26T14:50:46.901Z,7.90
2017-12-26T14:53:15.311Z,7.80
2017-12-26T14:55:43.713Z,7.80
2017-12-26T14:58:11.350Z,7.80
2017-12-26T15:00:39.727Z,7.70
2017-12-26T15:03:07.404Z,7.70
2017-12-26T15:05:35.894Z,7.70
2017-12-26T15:08:04.293Z,7.60
2017-12-26T15:10:31.900Z,7.60
2017-12-26T15:12:59.545Z,7.60
2017-12-26T15:15:27.183Z,7.60
2017-12-26T15:17:55.618Z,7.50
2017-12-26T15:20:23.279Z,7.50
2017-12-26T15:22:50.924Z,7.50
2017-12-26T15:25:18.628Z,7.50
2017-12-26T15:27:46.247Z,7.50
2017-12-26T15:30:13.914Z,7.40
2017-12-26T15:32:41.586Z,7.30
2017-12-26T15:35:09.238Z,7.40
2017-12-26T15:37:37.653Z,7.20
2017-12-26T15:40:05.288Z,7.20
2017-12-26T15:42:32.939Z,7.20
2017-12-26T15:45:00.767Z,7.20
2017-12-26T15:47:28.449Z,7.20
2017-12-26T15:49:56.196Z,7.20
2017-12-26T15:52:23.787Z,7.20
2017-12-26T15:54:51.408Z,7.20
2017-12-26T15:57:20.651Z,7.20
2017-12-26T15:59:47.598Z,7.10
2017-12-26T16:02:15.253Z,7.10
2017-12-26T16:04:42.933Z,7.10
2017-12-26T16:07:10.575Z,7.00
2017-12-26T16:09:38.205Z,7.00
2017-12-26T16:12:06.662Z,7.00
2017-12-26T16:14:34.470Z,7.00
2017-12-26T16:17:02.651Z,7.00
2017-12-26T16:19:30.365Z,7.00
2017-12-26T16:21:58.078Z,7.00
2017-12-26T16:24:26.476Z,7.00
2017-12-26T16:26:54.478Z,7.00
2017-12-26T16:29:22.072Z,7.00
2017-12-26T16:31:49.703Z,7.00
2017-12-26T16:34:17.385Z,7.00
2017-12-26T16:36:44.980Z,6.90
2017-12-26T16:39:12.747Z,6.90
2017-12-26T16:41:41.240Z,6.70
2017-12-26T16:44:08.875Z,6.70
2017-12-26T16:46:36.570Z,6.80
2017-12-26T16:49:04.986Z,6.80
2017-12-26T16:51:33.392Z,6.70
2017-12-26T16:54:01.075Z,6.70
2017-12-26T16:56:28.791Z,6.80
2017-12-26T16:58:57.267Z,6.70
2017-12-26T17:01:24.949Z,6.60
2017-12-26T17:03:53.328Z,6.50
2017-12-26T17:06:21.750Z,6.50
2017-12-26T17:08:49.351Z,6.50
2017-12-26T17:11:17.095Z,6.50
2017-12-26T17:13:44.698Z,6.40
2017-12-26T17:16:12.310Z,6.40
2017-12-26T17:18:39.995Z,6.40
2017-12-26T17:21:07.699Z,6.30
2017-12-26T17:23:35.350Z,6.20
2017-12-26T17:26:03.043Z,6.20
2017-12-26T17:28:31.437Z,6.10
2017-12-26T17:30:59.110Z,6.10
2017-12-26T17:33:26.791Z,6.00
2017-12-26T17:35:54.460Z,6.00
2017-12-26T17:38:22.134Z,6.00
2017-12-26T17:40:49.818Z,5.90
2017-12-26T17:43:17.469Z,5.80
2017-12-26T17:45:45.100Z,5.70
2017-12-26T17:48:13.598Z,5.70
2017-12-26T17:50:42.140Z,5.70
2017-12-26T17:53:09.850Z,5.60
2017-12-26T17:55:37.522Z,5.60
2017-12-26T17:58:05.164Z,5.50
2017-12-26T18:00:33.586Z,5.40
2017-12-26T18:03:01.246Z,5.40
2017-12-26T18:05:28.923Z,5.40
2017-12-26T18:07:56.593Z,5.50
2017-12-26T18:10:24.234Z,5.40
2017-12-26T18:12:52.689Z,5.40
2017-12-26T18:15:20.441Z,5.40
2017-12-26T18:17:48.482Z,5.30
2017-12-26T18:20:16.269Z,5.20
2017-12-26T18:22:43.975Z,5.10
2017-12-26T18:25:11.610Z,5.20
2017-12-26T18:27:39.296Z,5.20
2017-12-26T18:30:07.022Z,5.10
2017-12-26T18:32:34.712Z,5.20
2017-12-26T18:35:02.373Z,5.10
2017-12-26T18:37:30.024Z,5.10
2017-12-26T18:39:57.657Z,5.00
2017-12-26T18:42:26.102Z,4.90
2017-12-26T18:44:53.697Z,4.90
2017-12-26T18:47:21.365Z,5.00
2017-12-26T18:49:48.979Z,5.00
2017-12-26T18:52:16.671Z,4.90
2017-12-26T18:54:44.342Z,4.90
2017-12-26T18:57:12.004Z,4.80
2017-12-26T18:59:39.613Z,4.70
2017-12-26T19:02:08.030Z,4.60
2017-12-26T19:04:35.767Z,4.60
2017-12-26T19:07:04.181Z,4.60
2017-12-26T19:09:33.106Z,4.60
2017-12-26T19:12:00.833Z,4.60
2017-12-26T19:14:28.546Z,4.50
2017-12-26T19:16:56.172Z,4.50
2017-12-26T19:19:23.793Z,4.40
2017-12-26T19:21:52.310Z,4.40
2017-12-26T19:24:21.089Z,4.40
2017-12-26T19:26:49.610Z,4.40
2017-12-26T19:29:17.286Z,4.40
2017-12-26T19:31:45.294Z,4.50
2017-12-26T19:34:14.518Z,4.40
2017-12-26T19:36:42.957Z,4.30
2017-12-26T19:39:10.736Z,4.20
2017-12-26T19:41:38.471Z,4.20
2017-12-26T19:44:06.190Z,4.20
2017-12-26T19:46:33.875Z,4.20
2017-12-26T19:49:01.770Z,4.00
2017-12-26T19:51:30.187Z,4.00
2017-12-26T19:53:59.629Z,4.00
2017-12-26T19:56:27.222Z,3.90
2017-12-26T19:58:55.649Z,3.90
2017-12-26T20:01:23.496Z,3.90
2017-12-26T20:03:51.715Z,4.00
2017-12-26T20:06:19.399Z,4.00
2017-12-26T20:08:47.051Z,3.90
2017-12-26T20:11:14.709Z,3.90
2017-12-26T20:13:42.376Z,3.90
2017-12-26T20:16:10.074Z,3.80
2017-12-26T20:18:37.955Z,3.80
2017-12-26T20:21:05.618Z,3.70
2017-12-26T20:23:33.235Z,3.60
2017-12-26T20:26:01.785Z,3.40
2017-12-26T20:28:35.180Z,3.40
2017-12-26T20:31:03.051Z,3.50
2017-12-26T20:33:30.773Z,3.40
2017-12-26T20:35:59.705Z,3.40
2017-12-26T20:38:27.337Z,3.30
2017-12-26T20:40:55.097Z,3.30
2017-12-26T20:43:22.828Z,3.10
2017-12-26T20:45:50.423Z,3.30
2017-12-26T20:48:18.105Z,3.30
2017-12-26T20:50:45.779Z,3.40
2017-12-26T20:53:13.453Z,3.30
2017-12-26T20:55:41.101Z,3.20
2017-12-26T20:58:08.738Z,3.20
2017-12-26T21:00:36.376Z,3.20
2017-12-26T21:03:04.070Z,3.10
2017-12-26T21:05:31.885Z,3.00
2017-12-26T21:07:59.536Z,3.10
2017-12-26T21:10:27.216Z,3.10
2017-12-26T21:12:54.885Z,3.00
2017-12-26T21:15:22.595Z,3.00
2017-12-26T21:17:50.313Z,3.10
2017-12-26T21:20:18.020Z,3.00
2017-12-26T21:22:46.507Z,2.80
2017-12-26T21:25:14.273Z,2.70
2017-12-26T21:27:42.654Z,2.80
2017-12-26T21:30:10.340Z,2.80
2017-12-26T21:32:38.023Z,2.90
2017-12-26T21:35:06.456Z,2.70
2017-12-26T21:37:34.173Z,2.70
2017-12-26T21:40:02.595Z,2.60
2017-12-26T21:42:30.272Z,2.60
2017-12-26T21:44:57.941Z,2.50
2017-12-26T21:47:25.971Z,2.50
2017-12-26T21:49:54.493Z,2.30
2017-12-26T21:52:22.295Z,2.30
2017-12-26T21:54:49.941Z,2.30
2017-12-26T21:57:17.598Z,2.30
2017-12-26T21:59:45.285Z,2.40
2017-12-26T22:02:13.006Z,2.40
2017-12-26T22:04:41.447Z,2.40
2017-12-26T22:07:09.117Z,2.30
2017-12-26T22:09:36.755Z,2.40
2017-12-26T22:12:04.433Z,2.50
2017-12-26T22:14:32.131Z,2.50
2017-12-26T22:16:59.812Z,2.60
2017-12-26T22:19:27.498Z,2.70
2017-12-26T22:21:55.953Z,2.80
2017-12-26T22:24:24.434Z,2.60
2017-12-26T22:26:52.104Z,2.60
2017-12-26T22:29:19.800Z,2.60
2017-12-26T22:31:48.188Z,2.60
2017-12-26T22:34:15.907Z,2.60
2017-12-26T22:36:43.698Z,2.60
2017-12-26T22:39:11.320Z,2.80
2017-12-26T22:41:39.029Z,2.70
2017-12-26T22:44:06.700Z,2.70
2017-12-26T22:46:34.420Z,2.60
2017-12-26T22:49:02.092Z,2.50
2017-12-26T22:51:29.774Z,2.40
2017-12-26T22:53:57.423Z,2.40
2017-12-26T22:56:25.082Z,2.40
2017-12-26T22:58:52.746Z,2.20
2017-12-26T23:01:20.384Z,2.30
2017-12-26T23:03:48.807Z,2.20
2017-12-26T23:06:16.473Z,2.20
2017-12-26T23:08:44.123Z,2.30
2017-12-26T23:11:11.810Z,2.40
2017-12-26T23:13:39.467Z,2.40
2017-12-26T23:16:12.796Z,2.30
2017-12-26T23:18:40.461Z,2.40
2017-12-26T23:21:08.126Z,2.40
2017-12-26T23:23:41.723Z,2.40
2017-12-26T23:26:15.049Z,2.30
2017-12-26T23:28:48.376Z,2.30
2017-12-26T23:31:22.565Z,2.30
2017-12-26T23:33:56.017Z,2.30
2017-12-26T23:36:29.533Z,2.30
2017-12-26T23:39:02.838Z,2.20
2017-12-26T23:55:07.325Z,1.90
2017-12-26T23:57:40.756Z,1.90
